sensor_id;sensor_type;location;lat;lon;timestamp;pressure;altitude;pressure_sealevel;temperature;humidity
49072;BME280;52656;52.610;10.236;2023-11-18T00:01:43;101922.78;;;7.48;55.14
49072;BME280;52656;52.610;10.236;2023-11-18T00:04:09;101919.25;;;7.52;54.47
49072;BME280;52656;52.610;10.236;2023-11-18T00:06:43;101927.19;;;7.51;54.15
49072;BME280;52656;52.610;10.236;2023-11-18T00:09:13;101929.78;;;7.52;54.37
49072;BME280;52656;52.610;10.236;2023-11-18T00:11:43;101933.38;;;7.45;54.33
49072;BME280;52656;52.610;10.236;2023-11-18T00:14:09;101938.66;;;7.42;53.89
49072;BME280;52656;52.610;10.236;2023-11-18T00:16:36;101938.63;;;7.50;53.53
49072;BME280;52656;52.610;10.236;2023-11-18T00:19:02;101935.94;;;7.53;53.93
49072;BME280;52656;52.610;10.236;2023-11-18T00:21:29;101939.50;;;7.50;53.71
49072;BME280;52656;52.610;10.236;2023-11-18T00:23:55;101943.88;;;7.48;53.94
49072;BME280;52656;52.610;10.236;2023-11-18T00:26:21;101939.53;;;7.43;53.78
49072;BME280;52656;52.610;10.236;2023-11-18T00:28:46;101946.63;;;7.36;53.66
49072;BME280;52656;52.610;10.236;2023-11-18T00:31:12;101947.53;;;7.30;54.13
49072;BME280;52656;52.610;10.236;2023-11-18T00:33:38;101944.94;;;7.21;53.97
49072;BME280;52656;52.610;10.236;2023-11-18T00:36:04;101945.84;;;7.20;53.63
49072;BME280;52656;52.610;10.236;2023-11-18T00:38:29;101953.78;;;7.12;53.94
49072;BME280;52656;52.610;10.236;2023-11-18T00:40:55;101953.88;;;7.00;53.78
49072;BME280;52656;52.610;10.236;2023-11-18T00:43:21;101953.91;;;6.94;53.81
49072;BME280;52656;52.610;10.236;2023-11-18T00:45:47;101950.47;;;6.83;53.43
49072;BME280;52656;52.610;10.236;2023-11-18T00:48:13;101954.88;;;6.72;53.62
49072;BME280;52656;52.610;10.236;2023-11-18T00:50:40;101948.75;;;6.74;53.65
49072;BME280;52656;52.610;10.236;2023-11-18T00:53:05;101954.00;;;6.71;53.88
49072;BME280;52656;52.610;10.236;2023-11-18T00:55:30;101954.06;;;6.65;53.55
49072;BME280;52656;52.610;10.236;2023-11-18T00:57:56;101947.91;;;6.64;53.85
49072;BME280;52656;52.610;10.236;2023-11-18T01:00:22;101947.03;;;6.61;53.70
49072;BME280;52656;52.610;10.236;2023-11-18T01:02:48;101953.25;;;6.34;53.64
49072;BME280;52656;52.610;10.236;2023-11-18T01:05:15;101948.00;;;6.28;53.79
49072;BME280;52656;52.610;10.236;2023-11-18T01:07:41;101953.25;;;6.38;53.75
49072;BME280;52656;52.610;10.236;2023-11-18T01:10:06;101958.50;;;6.34;54.06
49072;BME280;52656;52.610;10.236;2023-11-18T01:12:32;101960.28;;;6.27;54.02
49072;BME280;52656;52.610;10.236;2023-11-18T01:14:57;101955.91;;;6.28;54.11
49072;BME280;52656;52.610;10.236;2023-11-18T01:17:23;101963.78;;;6.25;53.98
49072;BME280;52656;52.610;10.236;2023-11-18T01:19:49;101971.69;;;6.28;53.36
49072;BME280;52656;52.610;10.236;2023-11-18T01:22:15;101979.59;;;6.20;53.58
49072;BME280;52656;52.610;10.236;2023-11-18T01:24:40;101984.88;;;6.09;53.92
49072;BME280;52656;52.610;10.236;2023-11-18T01:27:05;101988.41;;;6.05;54.22
49072;BME280;52656;52.610;10.236;2023-11-18T01:29:37;101990.16;;;6.00;54.27
49072;BME280;52656;52.610;10.236;2023-11-18T01:32:04;101983.13;;;5.98;54.51
49072;BME280;52656;52.610;10.236;2023-11-18T01:34:35;101988.41;;;5.93;53.92
49072;BME280;52656;52.610;10.236;2023-11-18T01:37:00;101998.03;;;5.89;54.37
49072;BME280;52656;52.610;10.236;2023-11-18T01:39:25;101999.81;;;5.87;54.13
49072;BME280;52656;52.610;10.236;2023-11-18T01:41:52;102003.31;;;5.83;53.78
49072;BME280;52656;52.610;10.236;2023-11-18T01:44:17;102006.81;;;5.78;54.02
49072;BME280;52656;52.610;10.236;2023-11-18T01:46:44;102011.19;;;5.79;53.80
49072;BME280;52656;52.610;10.236;2023-11-18T01:49:11;102011.19;;;5.77;54.06
49072;BME280;52656;52.610;10.236;2023-11-18T01:51:40;102006.81;;;5.73;53.93
49072;BME280;52656;52.610;10.236;2023-11-18T01:54:07;102008.56;;;5.68;53.87
49072;BME280;52656;52.610;10.236;2023-11-18T01:56:34;102021.69;;;5.62;53.98
49072;BME280;52656;52.610;10.236;2023-11-18T01:58:59;102012.03;;;5.62;54.13
49072;BME280;52656;52.610;10.236;2023-11-18T02:01:29;102008.56;;;5.60;53.84
49072;BME280;52656;52.610;10.236;2023-11-18T02:03:55;102019.91;;;5.53;53.63
49072;BME280;52656;52.610;10.236;2023-11-18T02:06:20;102014.69;;;5.55;53.42
49072;BME280;52656;52.610;10.236;2023-11-18T02:08:46;102010.31;;;5.55;53.79
49072;BME280;52656;52.610;10.236;2023-11-18T02:11:32;102001.56;;;5.59;53.55
49072;BME280;52656;52.610;10.236;2023-11-18T02:14:01;102012.03;;;5.56;53.32
49072;BME280;52656;52.610;10.236;2023-11-18T02:16:31;102009.41;;;5.53;53.62
49072;BME280;52656;52.610;10.236;2023-11-18T02:18:58;102012.03;;;5.49;53.43
49072;BME280;52656;52.610;10.236;2023-11-18T02:21:25;102019.03;;;5.42;53.37
49072;BME280;52656;52.610;10.236;2023-11-18T02:23:51;102018.16;;;5.38;53.42
49072;BME280;52656;52.610;10.236;2023-11-18T02:26:27;102019.91;;;5.41;53.31
49072;BME280;52656;52.610;10.236;2023-11-18T02:28:52;102016.38;;;5.34;53.11
49072;BME280;52656;52.610;10.236;2023-11-18T02:31:33;102018.13;;;5.31;53.35
49072;BME280;52656;52.610;10.236;2023-11-18T02:34:11;102031.25;;;5.26;53.57
49072;BME280;52656;52.610;10.236;2023-11-18T02:36:44;102033.00;;;5.30;53.34
49072;BME280;52656;52.610;10.236;2023-11-18T02:39:32;102035.63;;;5.26;53.60
49072;BME280;52656;52.610;10.236;2023-11-18T02:42:01;102033.88;;;5.23;53.66
49072;BME280;52656;52.610;10.236;2023-11-18T02:44:29;102043.53;;;5.23;53.50
49072;BME280;52656;52.610;10.236;2023-11-18T02:46:57;102046.16;;;5.32;53.32
49072;BME280;52656;52.610;10.236;2023-11-18T02:49:23;102040.03;;;5.34;53.19
49072;BME280;52656;52.610;10.236;2023-11-18T02:51:48;102038.28;;;5.32;52.97
49072;BME280;52656;52.610;10.236;2023-11-18T02:54:13;102047.91;;;5.30;53.17
49072;BME280;52656;52.610;10.236;2023-11-18T02:56:41;102045.28;;;5.30;52.88
49072;BME280;52656;52.610;10.236;2023-11-18T02:59:06;102043.53;;;5.32;52.94
49072;BME280;52656;52.610;10.236;2023-11-18T03:01:32;102052.28;;;5.31;52.83
49072;BME280;52656;52.610;10.236;2023-11-18T03:03:59;102044.41;;;5.35;52.65
49072;BME280;52656;52.610;10.236;2023-11-18T03:06:25;102038.28;;;5.33;53.04
49072;BME280;52656;52.610;10.236;2023-11-18T03:08:50;102032.16;;;5.39;52.95
49072;BME280;52656;52.610;10.236;2023-11-18T03:11:17;102038.31;;;5.36;52.46
49072;BME280;52656;52.610;10.236;2023-11-18T03:13:42;102034.81;;;5.41;52.83
49072;BME280;52656;52.610;10.236;2023-11-18T03:16:08;102033.06;;;5.53;53.04
49072;BME280;52656;52.610;10.236;2023-11-18T03:18:41;102038.34;;;5.67;52.91
49072;BME280;52656;52.610;10.236;2023-11-18T03:21:14;102035.72;;;5.75;52.87
49072;BME280;52656;52.610;10.236;2023-11-18T03:23:40;102035.75;;;5.82;52.24
49072;BME280;52656;52.610;10.236;2023-11-18T03:26:09;102040.13;;;5.88;52.36
49072;BME280;52656;52.610;10.236;2023-11-18T03:28:35;102038.34;;;5.93;52.05
49072;BME280;52656;52.610;10.236;2023-11-18T03:31:01;102040.13;;;5.88;52.09
49072;BME280;52656;52.610;10.236;2023-11-18T03:33:27;102039.25;;;5.95;52.50
49072;BME280;52656;52.610;10.236;2023-11-18T03:35:52;102030.47;;;5.93;52.51
49072;BME280;52656;52.610;10.236;2023-11-18T03:38:17;102031.38;;;5.86;52.15
49072;BME280;52656;52.610;10.236;2023-11-18T03:40:43;102028.75;;;5.86;52.20
49072;BME280;52656;52.610;10.236;2023-11-18T03:43:10;102033.97;;;5.87;52.29
49072;BME280;52656;52.610;10.236;2023-11-18T03:45:38;102038.34;;;5.85;52.46
49072;BME280;52656;52.610;10.236;2023-11-18T03:48:03;102037.47;;;5.63;52.54
49072;BME280;52656;52.610;10.236;2023-11-18T03:50:28;102031.34;;;5.71;52.83
49072;BME280;52656;52.610;10.236;2023-11-18T03:52:54;102039.25;;;5.77;53.10
49072;BME280;52656;52.610;10.236;2023-11-18T03:55:19;102034.84;;;5.54;53.24
49072;BME280;52656;52.610;10.236;2023-11-18T03:57:45;102032.19;;;5.67;53.62
49072;BME280;52656;52.610;10.236;2023-11-18T04:00:11;102030.44;;;5.76;53.14
49072;BME280;52656;52.610;10.236;2023-11-18T04:02:36;102036.59;;;5.75;53.17
49072;BME280;52656;52.610;10.236;2023-11-18T04:05:03;102022.56;;;5.85;53.39
49072;BME280;52656;52.610;10.236;2023-11-18T04:07:29;102032.25;;;5.86;53.26
49072;BME280;52656;52.610;10.236;2023-11-18T04:09:54;102030.47;;;5.79;52.91
49072;BME280;52656;52.610;10.236;2023-11-18T04:12:19;102032.19;;;5.57;53.72
49072;BME280;52656;52.610;10.236;2023-11-18T04:14:45;102038.31;;;5.47;53.81
49072;BME280;52656;52.610;10.236;2023-11-18T04:17:10;102027.81;;;5.47;53.98
49072;BME280;52656;52.610;10.236;2023-11-18T04:19:35;102031.31;;;5.46;53.67
49072;BME280;52656;52.610;10.236;2023-11-18T04:22:02;102026.00;;;5.26;54.14
49072;BME280;52656;52.610;10.236;2023-11-18T04:24:27;102025.97;;;5.17;54.75
49072;BME280;52656;52.610;10.236;2023-11-18T04:26:52;102031.22;;;5.09;54.90
49072;BME280;52656;52.610;10.236;2023-11-18T04:29:20;102037.28;;;4.99;54.54
49072;BME280;52656;52.610;10.236;2023-11-18T04:31:46;102036.38;;;4.86;54.96
49072;BME280;52656;52.610;10.236;2023-11-18T04:34:12;102032.94;;;5.04;54.72
49072;BME280;52656;52.610;10.236;2023-11-18T04:36:41;102045.25;;;5.19;54.95
49072;BME280;52656;52.610;10.236;2023-11-18T04:39:06;102033.03;;;5.36;54.96
49072;BME280;52656;52.610;10.236;2023-11-18T04:41:31;102030.41;;;5.43;54.33
49072;BME280;52656;52.610;10.236;2023-11-18T04:43:57;102029.56;;;5.60;54.58
49072;BME280;52656;52.610;10.236;2023-11-18T04:46:22;102026.94;;;5.71;53.76
49072;BME280;52656;52.610;10.236;2023-11-18T04:48:47;102033.09;;;5.81;53.52
49072;BME280;52656;52.610;10.236;2023-11-18T04:51:13;102028.72;;;5.89;53.77
49072;BME280;52656;52.610;10.236;2023-11-18T04:53:38;102018.19;;;5.71;53.42
49072;BME280;52656;52.610;10.236;2023-11-18T04:56:04;102019.06;;;5.80;53.43
49072;BME280;52656;52.610;10.236;2023-11-18T04:58:30;102010.31;;;5.84;53.56
49072;BME280;52656;52.610;10.236;2023-11-18T05:00:56;102012.97;;;5.81;53.27
49072;BME280;52656;52.610;10.236;2023-11-18T05:03:21;102017.31;;;5.59;53.39
49072;BME280;52656;52.610;10.236;2023-11-18T05:05:48;102019.94;;;5.67;53.50
49072;BME280;52656;52.610;10.236;2023-11-18T05:08:21;102024.31;;;5.76;53.70
49072;BME280;52656;52.610;10.236;2023-11-18T05:10:50;102019.94;;;5.81;53.57
49072;BME280;52656;52.610;10.236;2023-11-18T05:13:16;102019.94;;;5.85;53.27
49072;BME280;52656;52.610;10.236;2023-11-18T05:15:45;102018.22;;;5.86;53.33
49072;BME280;52656;52.610;10.236;2023-11-18T05:18:12;102003.28;;;5.89;53.48
49072;BME280;52656;52.610;10.236;2023-11-18T05:20:40;102000.66;;;5.88;53.04
49072;BME280;52656;52.610;10.236;2023-11-18T05:23:05;101988.41;;;5.82;53.07
49072;BME280;52656;52.610;10.236;2023-11-18T05:25:31;101995.44;;;5.86;53.02
49072;BME280;52656;52.610;10.236;2023-11-18T05:27:58;101984.91;;;5.83;53.23
49072;BME280;52656;52.610;10.236;2023-11-18T05:30:24;101992.66;;;5.01;55.84
49072;BME280;52656;52.610;10.236;2023-11-18T05:32:49;101989.25;;;5.40;54.24
49072;BME280;52656;52.610;10.236;2023-11-18T05:35:14;101981.38;;;5.57;54.26
49072;BME280;52656;52.610;10.236;2023-11-18T05:37:40;101985.78;;;5.79;54.21
49072;BME280;52656;52.610;10.236;2023-11-18T05:40:06;101980.50;;;5.98;53.98
49072;BME280;52656;52.610;10.236;2023-11-18T05:42:33;101986.63;;;6.13;53.70
49072;BME280;52656;52.610;10.236;2023-11-18T05:45:02;101987.47;;;6.20;53.59
49072;BME280;52656;52.610;10.236;2023-11-18T05:47:27;101980.47;;;6.25;53.42
49072;BME280;52656;52.610;10.236;2023-11-18T05:49:53;101986.59;;;6.46;53.04
49072;BME280;52656;52.610;10.236;2023-11-18T05:52:19;101986.56;;;6.59;53.19
49072;BME280;52656;52.610;10.236;2023-11-18T05:54:46;101983.88;;;6.69;52.80
49072;BME280;52656;52.610;10.236;2023-11-18T05:57:13;101979.47;;;6.77;52.94
49072;BME280;52656;52.610;10.236;2023-11-18T05:59:38;101984.69;;;6.84;52.69
49072;BME280;52656;52.610;10.236;2023-11-18T06:02:03;101978.53;;;6.81;52.49
49072;BME280;52656;52.610;10.236;2023-11-18T06:04:29;101969.88;;;6.56;52.62
49072;BME280;52656;52.610;10.236;2023-11-18T06:06:56;101965.53;;;6.50;52.57
49072;BME280;52656;52.610;10.236;2023-11-18T06:09:22;101969.91;;;6.48;52.74
49072;BME280;52656;52.610;10.236;2023-11-18T06:11:50;101973.41;;;6.44;52.90
49072;BME280;52656;52.610;10.236;2023-11-18T06:14:16;101976.06;;;6.44;52.74
49072;BME280;52656;52.610;10.236;2023-11-18T06:16:42;101974.31;;;6.42;52.72
49072;BME280;52656;52.610;10.236;2023-11-18T06:19:07;101981.31;;;6.35;52.88
49072;BME280;52656;52.610;10.236;2023-11-18T06:21:33;101984.00;;;6.13;53.04
49072;BME280;52656;52.610;10.236;2023-11-18T06:23:59;101978.75;;;6.04;53.47
49072;BME280;52656;52.610;10.236;2023-11-18T06:26:25;101964.69;;;6.04;53.52
49072;BME280;52656;52.610;10.236;2023-11-18T06:28:52;101967.34;;;5.95;53.44
49072;BME280;52656;52.610;10.236;2023-11-18T06:31:19;101973.50;;;6.04;53.01
49072;BME280;52656;52.610;10.236;2023-11-18T06:33:46;101969.97;;;6.14;53.25
49072;BME280;52656;52.610;10.236;2023-11-18T06:38:48;101967.31;;;6.21;52.84
49072;BME280;52656;52.610;10.236;2023-11-18T06:41:15;101974.34;;;6.03;52.90
49072;BME280;52656;52.610;10.236;2023-11-18T06:43:43;101977.00;;;5.88;53.15
49072;BME280;52656;52.610;10.236;2023-11-18T06:46:26;101985.75;;;5.81;53.72
49072;BME280;52656;52.610;10.236;2023-11-18T06:48:54;101984.88;;;5.89;53.43
49072;BME280;52656;52.610;10.236;2023-11-18T06:51:21;101978.75;;;5.94;53.67
49072;BME280;52656;52.610;10.236;2023-11-18T06:53:53;101985.75;;;6.02;53.74
49072;BME280;52656;52.610;10.236;2023-11-18T06:56:28;101984.00;;;6.01;53.88
49072;BME280;52656;52.610;10.236;2023-11-18T06:58:54;101990.13;;;6.14;53.78
49072;BME280;52656;52.610;10.236;2023-11-18T07:01:20;102002.38;;;6.26;53.17
49072;BME280;52656;52.610;10.236;2023-11-18T07:03:46;102012.91;;;6.39;52.83
49072;BME280;52656;52.610;10.236;2023-11-18T07:06:17;102016.41;;;6.48;52.64
49072;BME280;52656;52.610;10.236;2023-11-18T07:08:50;102016.41;;;6.52;52.81
49072;BME280;52656;52.610;10.236;2023-11-18T07:11:16;102013.78;;;6.20;53.33
49072;BME280;52656;52.610;10.236;2023-11-18T07:13:42;102012.97;;;5.81;54.23
49072;BME280;52656;52.610;10.236;2023-11-18T07:16:07;102011.16;;;5.31;55.97
49072;BME280;52656;52.610;10.236;2023-11-18T07:18:37;102022.56;;;5.66;56.10
49072;BME280;52656;52.610;10.236;2023-11-18T07:21:06;102015.56;;;5.83;54.39
49072;BME280;52656;52.610;10.236;2023-11-18T07:23:32;102015.56;;;5.84;54.53
49072;BME280;52656;52.610;10.236;2023-11-18T07:25:57;102009.44;;;6.10;54.62
49072;BME280;52656;52.610;10.236;2023-11-18T07:28:23;102008.50;;;6.26;54.04
49072;BME280;52656;52.610;10.236;2023-11-18T07:30:48;102014.66;;;6.44;53.73
49072;BME280;52656;52.610;10.236;2023-11-18T07:33:15;102016.44;;;6.42;54.48
49072;BME280;52656;52.610;10.236;2023-11-18T07:35:41;102023.44;;;6.43;54.28
49072;BME280;52656;52.610;10.236;2023-11-18T07:38:07;102014.56;;;6.77;53.51
49072;BME280;52656;52.610;10.236;2023-11-18T07:40:33;102013.59;;;7.04;53.50
49072;BME280;52656;52.610;10.236;2023-11-18T07:42:59;102012.72;;;6.98;52.94
49072;BME280;52656;52.610;10.236;2023-11-18T07:45:27;102013.53;;;7.13;52.07
49072;BME280;52656;52.610;10.236;2023-11-18T07:47:56;102018.53;;;7.53;52.33
49072;BME280;52656;52.610;10.236;2023-11-18T07:50:22;102021.94;;;7.72;52.29
49072;BME280;52656;52.610;10.236;2023-11-18T07:52:48;102023.53;;;7.93;52.36
49072;BME280;52656;52.610;10.236;2023-11-18T07:55:14;102021.50;;;8.23;51.56
49072;BME280;52656;52.610;10.236;2023-11-18T07:57:40;102022.50;;;8.08;51.16
49072;BME280;52656;52.610;10.236;2023-11-18T08:00:06;102023.31;;;8.16;51.47
49072;BME280;52656;52.610;10.236;2023-11-18T08:02:37;102027.91;;;7.96;51.81
49072;BME280;52656;52.610;10.236;2023-11-18T08:05:03;102019.06;;;8.01;51.69
49072;BME280;52656;52.610;10.236;2023-11-18T08:07:33;102022.81;;;7.73;51.90
49072;BME280;52656;52.610;10.236;2023-11-18T08:09:59;102024.63;;;7.64;52.67
49072;BME280;52656;52.610;10.236;2023-11-18T08:12:24;102014.97;;;7.63;52.89
49072;BME280;52656;52.610;10.236;2023-11-18T08:14:50;102019.28;;;7.77;52.51
49072;BME280;52656;52.610;10.236;2023-11-18T08:17:15;102014.16;;;7.58;53.23
49072;BME280;52656;52.610;10.236;2023-11-18T08:19:40;102008.75;;;7.72;52.88
49072;BME280;52656;52.610;10.236;2023-11-18T08:22:06;102026.44;;;7.59;53.94
49072;BME280;52656;52.610;10.236;2023-11-18T08:24:34;102012.25;;;7.74;53.23
49072;BME280;52656;52.610;10.236;2023-11-18T08:26:59;102018.22;;;7.98;53.01
49072;BME280;52656;52.610;10.236;2023-11-18T08:29:25;102014.50;;;8.20;52.37
49072;BME280;52656;52.610;10.236;2023-11-18T08:31:56;102006.38;;;8.45;51.78
49072;BME280;52656;52.610;10.236;2023-11-18T08:34:21;101993.75;;;8.70;51.40
49072;BME280;52656;52.610;10.236;2023-11-18T08:36:46;101994.63;;;8.70;51.56
49072;BME280;52656;52.610;10.236;2023-11-18T08:39:12;101983.47;;;8.44;52.13
49072;BME280;52656;52.610;10.236;2023-11-18T08:41:38;101988.59;;;8.59;51.88
49072;BME280;52656;52.610;10.236;2023-11-18T08:44:04;101983.53;;;8.40;53.29
49072;BME280;52656;52.610;10.236;2023-11-18T08:46:30;101985.97;;;8.59;52.09
49072;BME280;52656;52.610;10.236;2023-11-18T08:48:55;101977.31;;;8.46;52.58
49072;BME280;52656;52.610;10.236;2023-11-18T08:51:21;101980.88;;;8.39;52.74
49072;BME280;52656;52.610;10.236;2023-11-18T08:53:46;101973.00;;;8.37;52.96
49072;BME280;52656;52.610;10.236;2023-11-18T08:56:13;101974.69;;;8.43;52.50
49072;BME280;52656;52.610;10.236;2023-11-18T08:58:44;101982.72;;;8.32;53.07
49072;BME280;52656;52.610;10.236;2023-11-18T09:01:14;101978.81;;;8.65;52.67
49072;BME280;52656;52.610;10.236;2023-11-18T09:03:41;101971.94;;;8.54;52.79
49072;BME280;52656;52.610;10.236;2023-11-18T09:06:14;101975.41;;;8.57;52.85
49072;BME280;52656;52.610;10.236;2023-11-18T09:08:47;101981.56;;;8.56;53.37
49072;BME280;52656;52.610;10.236;2023-11-18T09:11:18;101988.53;;;8.62;53.49
49072;BME280;52656;52.610;10.236;2023-11-18T09:13:46;101985.56;;;8.91;52.78
49072;BME280;52656;52.610;10.236;2023-11-18T09:16:14;101993.38;;;8.99;52.49
49072;BME280;52656;52.610;10.236;2023-11-18T09:18:41;101996.97;;;8.93;52.86
49072;BME280;52656;52.610;10.236;2023-11-18T09:21:08;101989.38;;;8.65;53.47
49072;BME280;52656;52.610;10.236;2023-11-18T09:23:39;101991.69;;;8.93;53.09
49072;BME280;52656;52.610;10.236;2023-11-18T09:26:05;101981.72;;;9.12;52.93
49072;BME280;52656;52.610;10.236;2023-11-18T09:28:34;101987.91;;;9.12;53.37
49072;BME280;52656;52.610;10.236;2023-11-18T09:31:00;101978.34;;;9.02;53.87
49072;BME280;52656;52.610;10.236;2023-11-18T09:33:29;101977.13;;;9.28;53.68
49072;BME280;52656;52.610;10.236;2023-11-18T09:38:30;101981.00;;;9.61;52.48
49072;BME280;52656;52.610;10.236;2023-11-18T09:40:57;101979.38;;;9.54;52.90
49072;BME280;52656;52.610;10.236;2023-11-18T09:43:24;101974.16;;;9.48;53.23
49072;BME280;52656;52.610;10.236;2023-11-18T09:45:54;101972.31;;;9.53;53.68
49072;BME280;52656;52.610;10.236;2023-11-18T09:48:20;101965.03;;;9.67;53.27
49072;BME280;52656;52.610;10.236;2023-11-18T09:50:51;101959.63;;;9.75;52.78
49072;BME280;52656;52.610;10.236;2023-11-18T09:53:17;101959.66;;;9.73;53.55
49072;BME280;52656;52.610;10.236;2023-11-18T09:55:58;101969.22;;;9.82;53.25
49072;BME280;52656;52.610;10.236;2023-11-18T09:58:25;101966.19;;;10.05;53.10
49072;BME280;52656;52.610;10.236;2023-11-18T10:00:59;101974.66;;;10.24;53.06
49072;BME280;52656;52.610;10.236;2023-11-18T10:03:27;101969.75;;;10.49;52.63
49072;BME280;52656;52.610;10.236;2023-11-18T10:05:55;101962.91;;;10.80;51.58
49072;BME280;52656;52.610;10.236;2023-11-18T10:08:22;101959.59;;;11.11;52.45
49072;BME280;52656;52.610;10.236;2023-11-18T10:10:51;101956.56;;;11.31;52.07
49072;BME280;52656;52.610;10.236;2023-11-18T10:13:29;101947.81;;;11.26;52.18
49072;BME280;52656;52.610;10.236;2023-11-18T10:15:55;101952.09;;;11.68;51.88
49072;BME280;52656;52.610;10.236;2023-11-18T10:18:23;101949.56;;;11.27;53.02
49072;BME280;52656;52.610;10.236;2023-11-18T10:20:49;101943.19;;;11.35;53.43
49072;BME280;52656;52.610;10.236;2023-11-18T10:23:20;101921.69;;;11.46;53.78
49072;BME280;52656;52.610;10.236;2023-11-18T10:25:46;101918.28;;;11.39;53.82
49072;BME280;52656;52.610;10.236;2023-11-18T10:28:23;101919.59;;;11.23;54.11
49072;BME280;52656;52.610;10.236;2023-11-18T10:31:00;101913.78;;;11.44;54.52
49072;BME280;52656;52.610;10.236;2023-11-18T10:33:35;101911.19;;;11.41;54.27
49072;BME280;52656;52.610;10.236;2023-11-18T10:36:01;101905.81;;;11.44;54.86
49072;BME280;52656;52.610;10.236;2023-11-18T10:38:32;101905.59;;;11.52;54.65
49072;BME280;52656;52.610;10.236;2023-11-18T10:40:59;101896.59;;;11.92;53.83
49072;BME280;52656;52.610;10.236;2023-11-18T10:43:27;101898.69;;;12.12;53.75
49072;BME280;52656;52.610;10.236;2023-11-18T10:46:05;101891.56;;;12.14;54.00
49072;BME280;52656;52.610;10.236;2023-11-18T10:48:50;101884.78;;;12.04;54.42
49072;BME280;52656;52.610;10.236;2023-11-18T10:51:20;101890.53;;;12.19;53.95
49072;BME280;52656;52.610;10.236;2023-11-18T10:53:50;101894.06;;;12.51;53.75
49072;BME280;52656;52.610;10.236;2023-11-18T10:56:26;101889.34;;;12.90;52.76
49072;BME280;52656;52.610;10.236;2023-11-18T11:01:28;101883.13;;;12.62;53.58
49072;BME280;52656;52.610;10.236;2023-11-18T11:03:55;101876.78;;;12.35;53.37
49072;BME280;52656;52.610;10.236;2023-11-18T11:06:22;101867.88;;;12.68;53.07
49072;BME280;52656;52.610;10.236;2023-11-18T11:08:49;101873.50;;;11.95;54.36
49072;BME280;52656;52.610;10.236;2023-11-18T11:11:20;101865.34;;;12.64;53.40
49072;BME280;52656;52.610;10.236;2023-11-18T11:13:49;101858.03;;;12.70;52.83
49072;BME280;52656;52.610;10.236;2023-11-18T11:16:18;101865.41;;;12.31;53.40
49072;BME280;52656;52.610;10.236;2023-11-18T11:18:48;101852.53;;;12.17;54.17
49072;BME280;52656;52.610;10.236;2023-11-18T11:21:21;101844.50;;;11.88;55.21
49072;BME280;52656;52.610;10.236;2023-11-18T11:24:01;101843.97;;;12.06;54.36
49072;BME280;52656;52.610;10.236;2023-11-18T11:29:24;101826.75;;;11.90;55.22
49072;BME280;52656;52.610;10.236;2023-11-18T11:34:53;101827.09;;;11.45;55.70
49072;BME280;52656;52.610;10.236;2023-11-18T11:37:19;101828.63;;;11.85;54.85
49072;BME280;52656;52.610;10.236;2023-11-18T11:39:44;101823.91;;;11.96;54.46
49072;BME280;52656;52.610;10.236;2023-11-18T11:42:12;101815.50;;;12.11;54.27
49072;BME280;52656;52.610;10.236;2023-11-18T11:44:43;101808.41;;;11.48;55.66
49072;BME280;52656;52.610;10.236;2023-11-18T11:47:08;101810.59;;;11.98;54.83
49072;BME280;52656;52.610;10.236;2023-11-18T11:50:01;101810.75;;;11.60;54.95
49072;BME280;52656;52.610;10.236;2023-11-18T11:52:36;101819.28;;;11.71;55.14
49072;BME280;52656;52.610;10.236;2023-11-18T11:55:09;101818.59;;;11.96;54.55
49072;BME280;52656;52.610;10.236;2023-11-18T11:57:38;101818.91;;;11.53;54.68
49072;BME280;52656;52.610;10.236;2023-11-18T12:00:04;101817.88;;;11.58;54.97
49072;BME280;52656;52.610;10.236;2023-11-18T12:02:47;101801.88;;;12.24;53.88
49072;BME280;52656;52.610;10.236;2023-11-18T12:05:16;101794.56;;;12.30;53.59
49072;BME280;52656;52.610;10.236;2023-11-18T12:07:44;101790.75;;;11.80;54.77
49072;BME280;52656;52.610;10.236;2023-11-18T12:10:11;101780.66;;;12.22;53.58
49072;BME280;52656;52.610;10.236;2023-11-18T12:12:45;101774.19;;;11.70;53.95
49072;BME280;52656;52.610;10.236;2023-11-18T12:15:11;101766.75;;;11.83;53.65
49072;BME280;52656;52.610;10.236;2023-11-18T12:20:41;101752.75;;;12.09;53.50
49072;BME280;52656;52.610;10.236;2023-11-18T12:23:27;101756.44;;;12.33;52.52
49072;BME280;52656;52.610;10.236;2023-11-18T12:25:52;101764.97;;;12.14;53.07
49072;BME280;52656;52.610;10.236;2023-11-18T12:28:29;101754.56;;;12.64;51.83
49072;BME280;52656;52.610;10.236;2023-11-18T12:31:02;101760.81;;;12.34;52.25
49072;BME280;52656;52.610;10.236;2023-11-18T12:39:20;101748.78;;;12.52;51.10
49072;BME280;52656;52.610;10.236;2023-11-18T12:42:07;101753.03;;;12.28;51.78
49072;BME280;52656;52.610;10.236;2023-11-18T12:47:28;101736.13;;;12.60;50.97
49072;BME280;52656;52.610;10.236;2023-11-18T12:49:55;101738.75;;;12.32;51.32
49072;BME280;52656;52.610;10.236;2023-11-18T12:52:22;101747.66;;;12.29;51.91
49072;BME280;52656;52.610;10.236;2023-11-18T12:54:48;101756.63;;;12.27;51.33
49072;BME280;52656;52.610;10.236;2023-11-18T12:57:19;101742.78;;;12.15;51.90
49072;BME280;52656;52.610;10.236;2023-11-18T12:59:48;101732.66;;;11.99;52.50
49072;BME280;52656;52.610;10.236;2023-11-18T13:02:15;101729.69;;;12.09;52.17
49072;BME280;52656;52.610;10.236;2023-11-18T13:04:46;101739.25;;;12.44;51.63
49072;BME280;52656;52.610;10.236;2023-11-18T13:07:18;101737.53;;;12.14;51.59
49072;BME280;52656;52.610;10.236;2023-11-18T13:09:44;101729.00;;;12.32;51.72
49072;BME280;52656;52.610;10.236;2023-11-18T13:12:11;101725.69;;;12.24;51.34
49072;BME280;52656;52.610;10.236;2023-11-18T13:14:41;101734.22;;;12.06;51.92
49072;BME280;52656;52.610;10.236;2023-11-18T13:17:14;101727.50;;;12.24;51.62